sensor_id;sensor_type;location;lat;lon;timestamp;P1;durP1;ratioP1;P2;durP2;ratioP2
13349;SDS011;6744;53.190;6.576;2023-08-07T00:00:02;4.10;;;3.70;;
13349;SDS011;6744;53.190;6.576;2023-08-07T00:02:29;3.73;;;3.33;;
13349;SDS011;6744;53.190;6.576;2023-08-07T00:04:54;3.20;;;2.97;;
13349;SDS011;6744;53.190;6.576;2023-08-07T00:07:19;3.63;;;3.33;;
13349;SDS011;6744;53.190;6.576;2023-08-07T00:09:45;4.23;;;3.00;;
13349;SDS011;6744;53.190;6.576;2023-08-07T00:12:10;3.50;;;3.20;;
13349;SDS011;6744;53.190;6.576;2023-08-07T00:14:36;3.27;;;2.67;;
13349;SDS011;6744;53.190;6.576;2023-08-07T00:17:01;3.20;;;2.90;;
13349;SDS011;6744;53.190;6.576;2023-08-07T00:19:27;3.60;;;3.30;;
13349;SDS011;6744;53.190;6.576;2023-08-07T00:21:53;3.13;;;2.83;;
13349;SDS011;6744;53.190;6.576;2023-08-07T00:24:18;3.50;;;3.20;;
13349;SDS011;6744;53.190;6.576;2023-08-07T00:26:43;3.33;;;3.03;;
13349;SDS011;6744;53.190;6.576;2023-08-07T00:29:09;5.27;;;3.50;;
13349;SDS011;6744;53.190;6.576;2023-08-07T00:31:34;9.00;;;3.30;;
13349;SDS011;6744;53.190;6.576;2023-08-07T00:33:59;4.33;;;2.80;;
13349;SDS011;6744;53.190;6.576;2023-08-07T00:36:25;3.70;;;2.70;;
13349;SDS011;6744;53.190;6.576;2023-08-07T00:38:53;3.20;;;2.50;;
13349;SDS011;6744;53.190;6.576;2023-08-07T00:41:18;2.80;;;2.27;;
13349;SDS011;6744;53.190;6.576;2023-08-07T00:43:45;2.50;;;2.23;;
13349;SDS011;6744;53.190;6.576;2023-08-07T00:46:10;2.77;;;2.57;;
13349;SDS011;6744;53.190;6.576;2023-08-07T00:48:35;2.53;;;1.87;;
13349;SDS011;6744;53.190;6.576;2023-08-07T00:51:01;2.27;;;1.97;;
13349;SDS011;6744;53.190;6.576;2023-08-07T00:53:27;3.03;;;2.00;;
13349;SDS011;6744;53.190;6.576;2023-08-07T00:55:52;2.80;;;2.13;;
13349;SDS011;6744;53.190;6.576;2023-08-07T00:58:18;2.83;;;2.20;;
13349;SDS011;6744;53.190;6.576;2023-08-07T01:00:43;2.63;;;2.40;;
13349;SDS011;6744;53.190;6.576;2023-08-07T01:03:08;2.97;;;2.13;;
13349;SDS011;6744;53.190;6.576;2023-08-07T01:05:37;3.53;;;2.40;;
13349;SDS011;6744;53.190;6.576;2023-08-07T01:08:02;2.23;;;2.03;;
13349;SDS011;6744;53.190;6.576;2023-08-07T01:13:19;2.97;;;2.30;;
13349;SDS011;6744;53.190;6.576;2023-08-07T01:15:50;3.50;;;2.30;;
13349;SDS011;6744;53.190;6.576;2023-08-07T01:18:17;2.67;;;2.40;;
13349;SDS011;6744;53.190;6.576;2023-08-07T01:20:42;2.27;;;2.07;;
13349;SDS011;6744;53.190;6.576;2023-08-07T01:23:08;4.00;;;2.40;;
13349;SDS011;6744;53.190;6.576;2023-08-07T01:25:33;2.50;;;2.30;;
13349;SDS011;6744;53.190;6.576;2023-08-07T01:28:02;2.80;;;2.17;;
13349;SDS011;6744;53.190;6.576;2023-08-07T01:30:35;3.23;;;2.23;;
13349;SDS011;6744;53.190;6.576;2023-08-07T01:33:04;3.90;;;2.60;;
13349;SDS011;6744;53.190;6.576;2023-08-07T01:35:43;2.83;;;2.00;;
13349;SDS011;6744;53.190;6.576;2023-08-07T01:38:10;3.07;;;2.40;;
13349;SDS011;6744;53.190;6.576;2023-08-07T01:40:37;2.80;;;2.33;;
13349;SDS011;6744;53.190;6.576;2023-08-07T01:43:04;3.47;;;2.60;;
13349;SDS011;6744;53.190;6.576;2023-08-07T01:45:29;5.80;;;3.40;;
13349;SDS011;6744;53.190;6.576;2023-08-07T01:47:55;4.17;;;2.90;;
13349;SDS011;6744;53.190;6.576;2023-08-07T01:50:21;4.23;;;2.80;;
13349;SDS011;6744;53.190;6.576;2023-08-07T01:52:47;2.60;;;2.40;;
13349;SDS011;6744;53.190;6.576;2023-08-07T01:55:13;4.30;;;2.87;;
13349;SDS011;6744;53.190;6.576;2023-08-07T01:57:39;2.67;;;1.90;;
13349;SDS011;6744;53.190;6.576;2023-08-07T02:00:04;2.30;;;1.90;;
13349;SDS011;6744;53.190;6.576;2023-08-07T02:02:30;4.67;;;2.40;;
13349;SDS011;6744;53.190;6.576;2023-08-07T02:04:56;5.27;;;2.87;;
13349;SDS011;6744;53.190;6.576;2023-08-07T02:07:21;3.10;;;2.47;;
13349;SDS011;6744;53.190;6.576;2023-08-07T02:09:46;3.00;;;1.90;;
13349;SDS011;6744;53.190;6.576;2023-08-07T02:12:12;4.40;;;2.30;;
13349;SDS011;6744;53.190;6.576;2023-08-07T02:14:37;4.87;;;1.93;;
13349;SDS011;6744;53.190;6.576;2023-08-07T02:17:03;2.73;;;1.80;;
13349;SDS011;6744;53.190;6.576;2023-08-07T02:19:28;2.60;;;1.90;;
13349;SDS011;6744;53.190;6.576;2023-08-07T02:21:54;5.53;;;2.20;;
13349;SDS011;6744;53.190;6.576;2023-08-07T02:24:19;3.60;;;2.10;;
13349;SDS011;6744;53.190;6.576;2023-08-07T02:26:45;5.77;;;2.10;;
13349;SDS011;6744;53.190;6.576;2023-08-07T02:29:10;8.13;;;2.57;;
13349;SDS011;6744;53.190;6.576;2023-08-07T02:31:36;4.47;;;2.23;;
13349;SDS011;6744;53.190;6.576;2023-08-07T02:34:01;3.83;;;1.87;;
13349;SDS011;6744;53.190;6.576;2023-08-07T02:36:26;4.03;;;1.87;;
13349;SDS011;6744;53.190;6.576;2023-08-07T02:38:52;6.17;;;2.37;;
13349;SDS011;6744;53.190;6.576;2023-08-07T02:41:17;7.10;;;3.07;;
13349;SDS011;6744;53.190;6.576;2023-08-07T02:43:42;5.97;;;2.13;;
13349;SDS011;6744;53.190;6.576;2023-08-07T02:46:08;3.87;;;2.10;;
13349;SDS011;6744;53.190;6.576;2023-08-07T02:48:33;5.47;;;2.20;;
13349;SDS011;6744;53.190;6.576;2023-08-07T02:50:59;5.57;;;2.23;;
13349;SDS011;6744;53.190;6.576;2023-08-07T02:53:25;6.87;;;1.87;;
13349;SDS011;6744;53.190;6.576;2023-08-07T02:55:51;4.40;;;2.20;;
13349;SDS011;6744;53.190;6.576;2023-08-07T02:58:16;4.10;;;1.77;;
13349;SDS011;6744;53.190;6.576;2023-08-07T03:00:41;6.47;;;2.03;;
13349;SDS011;6744;53.190;6.576;2023-08-07T03:03:08;6.80;;;2.50;;
13349;SDS011;6744;53.190;6.576;2023-08-07T03:05:33;5.60;;;2.40;;
13349;SDS011;6744;53.190;6.576;2023-08-07T03:07:59;5.57;;;2.33;;
13349;SDS011;6744;53.190;6.576;2023-08-07T03:10:24;4.60;;;2.00;;
13349;SDS011;6744;53.190;6.576;2023-08-07T03:12:49;5.17;;;2.40;;
13349;SDS011;6744;53.190;6.576;2023-08-07T03:15:15;3.43;;;2.37;;
13349;SDS011;6744;53.190;6.576;2023-08-07T03:17:40;6.23;;;2.40;;
13349;SDS011;6744;53.190;6.576;2023-08-07T03:20:05;5.40;;;2.47;;
13349;SDS011;6744;53.190;6.576;2023-08-07T03:22:31;5.50;;;2.47;;
13349;SDS011;6744;53.190;6.576;2023-08-07T03:24:56;4.77;;;2.40;;
13349;SDS011;6744;53.190;6.576;2023-08-07T03:27:22;4.67;;;2.27;;
13349;SDS011;6744;53.190;6.576;2023-08-07T03:29:47;6.93;;;2.53;;
13349;SDS011;6744;53.190;6.576;2023-08-07T03:32:12;5.70;;;2.47;;
13349;SDS011;6744;53.190;6.576;2023-08-07T03:34:38;4.47;;;2.40;;
13349;SDS011;6744;53.190;6.576;2023-08-07T03:37:03;7.33;;;2.70;;
13349;SDS011;6744;53.190;6.576;2023-08-07T03:39:29;4.17;;;2.10;;
13349;SDS011;6744;53.190;6.576;2023-08-07T03:41:54;5.77;;;2.30;;
13349;SDS011;6744;53.190;6.576;2023-08-07T03:44:19;5.13;;;2.43;;
13349;SDS011;6744;53.190;6.576;2023-08-07T03:46:45;3.23;;;1.70;;
13349;SDS011;6744;53.190;6.576;2023-08-07T03:49:10;4.50;;;2.10;;
13349;SDS011;6744;53.190;6.576;2023-08-07T03:51:36;5.13;;;1.80;;
13349;SDS011;6744;53.190;6.576;2023-08-07T03:54:01;5.53;;;1.90;;
13349;SDS011;6744;53.190;6.576;2023-08-07T03:56:26;3.07;;;1.60;;
13349;SDS011;6744;53.190;6.576;2023-08-07T03:58:52;5.13;;;1.83;;
13349;SDS011;6744;53.190;6.576;2023-08-07T04:01:17;4.37;;;1.70;;
13349;SDS011;6744;53.190;6.576;2023-08-07T04:03:42;4.33;;;1.87;;
13349;SDS011;6744;53.190;6.576;2023-08-07T04:06:08;4.90;;;1.90;;
13349;SDS011;6744;53.190;6.576;2023-08-07T04:08:35;4.57;;;2.00;;
13349;SDS011;6744;53.190;6.576;2023-08-07T04:11:01;6.77;;;2.03;;
13349;SDS011;6744;53.190;6.576;2023-08-07T04:13:28;3.23;;;1.80;;
13349;SDS011;6744;53.190;6.576;2023-08-07T04:15:53;4.50;;;1.70;;
13349;SDS011;6744;53.190;6.576;2023-08-07T04:18:19;6.97;;;2.40;;
13349;SDS011;6744;53.190;6.576;2023-08-07T04:20:54;6.20;;;2.70;;
13349;SDS011;6744;53.190;6.576;2023-08-07T04:23:20;7.33;;;2.90;;
13349;SDS011;6744;53.190;6.576;2023-08-07T04:25:49;10.00;;;3.10;;
13349;SDS011;6744;53.190;6.576;2023-08-07T04:28:15;7.10;;;2.50;;
13349;SDS011;6744;53.190;6.576;2023-08-07T04:30:41;4.67;;;2.27;;
13349;SDS011;6744;53.190;6.576;2023-08-07T04:33:08;6.83;;;2.60;;
13349;SDS011;6744;53.190;6.576;2023-08-07T04:35:33;3.70;;;2.10;;
13349;SDS011;6744;53.190;6.576;2023-08-07T04:37:59;8.40;;;2.90;;
13349;SDS011;6744;53.190;6.576;2023-08-07T04:40:24;9.47;;;3.30;;
13349;SDS011;6744;53.190;6.576;2023-08-07T04:42:50;7.07;;;3.57;;
13349;SDS011;6744;53.190;6.576;2023-08-07T04:45:15;5.73;;;2.93;;
13349;SDS011;6744;53.190;6.576;2023-08-07T04:47:41;8.90;;;3.30;;
13349;SDS011;6744;53.190;6.576;2023-08-07T04:50:06;9.27;;;2.90;;
13349;SDS011;6744;53.190;6.576;2023-08-07T04:52:33;10.23;;;3.00;;
13349;SDS011;6744;53.190;6.576;2023-08-07T04:54:58;8.00;;;2.90;;
13349;SDS011;6744;53.190;6.576;2023-08-07T04:57:24;7.37;;;2.77;;
13349;SDS011;6744;53.190;6.576;2023-08-07T04:59:49;8.00;;;2.60;;
13349;SDS011;6744;53.190;6.576;2023-08-07T05:02:15;8.60;;;2.87;;
13349;SDS011;6744;53.190;6.576;2023-08-07T05:04:40;6.60;;;2.60;;
13349;SDS011;6744;53.190;6.576;2023-08-07T05:07:06;10.00;;;2.67;;
13349;SDS011;6744;53.190;6.576;2023-08-07T05:09:31;7.57;;;2.57;;
13349;SDS011;6744;53.190;6.576;2023-08-07T05:11:57;8.03;;;3.03;;
13349;SDS011;6744;53.190;6.576;2023-08-07T05:14:22;8.80;;;2.90;;
13349;SDS011;6744;53.190;6.576;2023-08-07T05:16:47;9.73;;;3.00;;
13349;SDS011;6744;53.190;6.576;2023-08-07T05:19:13;10.63;;;2.83;;
13349;SDS011;6744;53.190;6.576;2023-08-07T05:21:38;12.50;;;3.50;;
13349;SDS011;6744;53.190;6.576;2023-08-07T05:24:04;9.47;;;3.50;;
13349;SDS011;6744;53.190;6.576;2023-08-07T05:26:30;11.53;;;3.80;;
13349;SDS011;6744;53.190;6.576;2023-08-07T05:28:55;10.47;;;3.50;;
13349;SDS011;6744;53.190;6.576;2023-08-07T05:31:23;9.73;;;3.60;;
13349;SDS011;6744;53.190;6.576;2023-08-07T05:33:49;12.17;;;3.77;;
13349;SDS011;6744;53.190;6.576;2023-08-07T05:36:14;12.87;;;4.73;;
13349;SDS011;6744;53.190;6.576;2023-08-07T05:38:39;11.33;;;3.60;;
13349;SDS011;6744;53.190;6.576;2023-08-07T05:41:05;13.57;;;4.17;;
13349;SDS011;6744;53.190;6.576;2023-08-07T05:43:30;10.53;;;3.43;;
13349;SDS011;6744;53.190;6.576;2023-08-07T05:45:55;7.77;;;3.33;;
13349;SDS011;6744;53.190;6.576;2023-08-07T05:48:21;11.97;;;3.60;;
13349;SDS011;6744;53.190;6.576;2023-08-07T05:50:46;9.67;;;3.47;;
13349;SDS011;6744;53.190;6.576;2023-08-07T05:53:11;9.40;;;3.57;;
13349;SDS011;6744;53.190;6.576;2023-08-07T05:55:38;10.73;;;3.33;;
13349;SDS011;6744;53.190;6.576;2023-08-07T05:58:05;9.23;;;3.27;;
13349;SDS011;6744;53.190;6.576;2023-08-07T06:00:31;10.57;;;3.70;;
13349;SDS011;6744;53.190;6.576;2023-08-07T06:02:56;12.93;;;3.20;;
13349;SDS011;6744;53.190;6.576;2023-08-07T06:05:22;10.23;;;2.70;;
13349;SDS011;6744;53.190;6.576;2023-08-07T06:07:47;10.53;;;3.00;;
13349;SDS011;6744;53.190;6.576;2023-08-07T06:10:13;11.20;;;3.20;;
13349;SDS011;6744;53.190;6.576;2023-08-07T06:12:38;7.83;;;3.10;;
13349;SDS011;6744;53.190;6.576;2023-08-07T06:15:04;9.73;;;3.00;;
13349;SDS011;6744;53.190;6.576;2023-08-07T06:17:29;8.90;;;2.57;;
13349;SDS011;6744;53.190;6.576;2023-08-07T06:19:55;10.73;;;2.83;;
13349;SDS011;6744;53.190;6.576;2023-08-07T06:22:20;8.33;;;2.63;;
13349;SDS011;6744;53.190;6.576;2023-08-07T06:24:46;7.13;;;2.77;;
13349;SDS011;6744;53.190;6.576;2023-08-07T06:27:11;10.30;;;2.60;;
13349;SDS011;6744;53.190;6.576;2023-08-07T06:29:36;8.33;;;2.73;;
13349;SDS011;6744;53.190;6.576;2023-08-07T06:32:02;7.40;;;2.43;;
13349;SDS011;6744;53.190;6.576;2023-08-07T06:34:27;8.63;;;2.67;;
13349;SDS011;6744;53.190;6.576;2023-08-07T06:36:53;10.43;;;2.53;;
13349;SDS011;6744;53.190;6.576;2023-08-07T06:39:19;7.40;;;2.40;;
13349;SDS011;6744;53.190;6.576;2023-08-07T06:41:44;6.03;;;2.47;;
13349;SDS011;6744;53.190;6.576;2023-08-07T06:44:09;6.83;;;2.60;;
13349;SDS011;6744;53.190;6.576;2023-08-07T06:46:35;9.17;;;2.67;;
13349;SDS011;6744;53.190;6.576;2023-08-07T06:49:00;5.17;;;2.33;;
13349;SDS011;6744;53.190;6.576;2023-08-07T06:51:25;5.67;;;1.80;;
13349;SDS011;6744;53.190;6.576;2023-08-07T06:53:51;6.67;;;2.30;;
13349;SDS011;6744;53.190;6.576;2023-08-07T06:56:16;9.53;;;2.37;;
13349;SDS011;6744;53.190;6.576;2023-08-07T06:58:42;7.23;;;2.70;;
13349;SDS011;6744;53.190;6.576;2023-08-07T07:01:07;7.77;;;2.50;;
13349;SDS011;6744;53.190;6.576;2023-08-07T07:03:32;8.30;;;2.83;;
13349;SDS011;6744;53.190;6.576;2023-08-07T07:05:58;6.13;;;2.10;;
13349;SDS011;6744;53.190;6.576;2023-08-07T07:08:23;7.53;;;2.40;;
13349;SDS011;6744;53.190;6.576;2023-08-07T07:10:48;7.00;;;2.33;;
13349;SDS011;6744;53.190;6.576;2023-08-07T07:13:14;10.03;;;2.43;;
13349;SDS011;6744;53.190;6.576;2023-08-07T07:15:39;5.90;;;2.50;;
13349;SDS011;6744;53.190;6.576;2023-08-07T07:18:05;10.50;;;2.87;;
13349;SDS011;6744;53.190;6.576;2023-08-07T07:20:30;7.47;;;2.40;;
13349;SDS011;6744;53.190;6.576;2023-08-07T07:22:56;7.57;;;2.43;;
13349;SDS011;6744;53.190;6.576;2023-08-07T07:25:21;5.60;;;2.30;;
13349;SDS011;6744;53.190;6.576;2023-08-07T07:27:46;7.17;;;2.50;;
13349;SDS011;6744;53.190;6.576;2023-08-07T07:30:12;8.73;;;2.93;;
13349;SDS011;6744;53.190;6.576;2023-08-07T07:32:37;8.13;;;2.70;;
13349;SDS011;6744;53.190;6.576;2023-08-07T07:35:03;8.70;;;2.67;;
13349;SDS011;6744;53.190;6.576;2023-08-07T07:37:29;10.63;;;2.70;;
13349;SDS011;6744;53.190;6.576;2023-08-07T07:39:56;6.93;;;2.70;;
13349;SDS011;6744;53.190;6.576;2023-08-07T07:42:21;8.47;;;3.50;;
13349;SDS011;6744;53.190;6.576;2023-08-07T07:44:46;5.77;;;2.60;;
13349;SDS011;6744;53.190;6.576;2023-08-07T07:47:12;11.67;;;3.47;;
13349;SDS011;6744;53.190;6.576;2023-08-07T07:49:38;9.13;;;2.63;;
13349;SDS011;6744;53.190;6.576;2023-08-07T07:52:03;4.60;;;2.37;;
13349;SDS011;6744;53.190;6.576;2023-08-07T07:54:30;7.50;;;3.10;;
13349;SDS011;6744;53.190;6.576;2023-08-07T07:56:55;5.93;;;2.50;;
13349;SDS011;6744;53.190;6.576;2023-08-07T07:59:21;7.30;;;2.97;;
13349;SDS011;6744;53.190;6.576;2023-08-07T08:01:46;8.07;;;2.70;;
13349;SDS011;6744;53.190;6.576;2023-08-07T08:04:11;7.47;;;2.63;;
13349;SDS011;6744;53.190;6.576;2023-08-07T08:06:37;10.70;;;3.27;;
13349;SDS011;6744;53.190;6.576;2023-08-07T08:09:03;10.70;;;2.90;;
13349;SDS011;6744;53.190;6.576;2023-08-07T08:11:29;9.50;;;3.07;;
13349;SDS011;6744;53.190;6.576;2023-08-07T08:13:55;8.30;;;2.87;;
13349;SDS011;6744;53.190;6.576;2023-08-07T08:16:20;7.23;;;3.07;;
13349;SDS011;6744;53.190;6.576;2023-08-07T08:18:46;8.17;;;3.00;;
13349;SDS011;6744;53.190;6.576;2023-08-07T08:21:11;9.87;;;3.10;;
13349;SDS011;6744;53.190;6.576;2023-08-07T08:23:36;5.83;;;3.00;;
13349;SDS011;6744;53.190;6.576;2023-08-07T08:26:02;10.30;;;3.50;;
13349;SDS011;6744;53.190;6.576;2023-08-07T08:28:27;7.07;;;3.43;;
13349;SDS011;6744;53.190;6.576;2023-08-07T08:30:53;8.03;;;3.40;;
13349;SDS011;6744;53.190;6.576;2023-08-07T08:33:18;11.20;;;3.37;;
13349;SDS011;6744;53.190;6.576;2023-08-07T08:35:43;7.53;;;2.80;;
13349;SDS011;6744;53.190;6.576;2023-08-07T08:38:09;9.93;;;3.10;;
13349;SDS011;6744;53.190;6.576;2023-08-07T08:40:34;8.27;;;3.23;;
13349;SDS011;6744;53.190;6.576;2023-08-07T08:43:01;8.57;;;3.37;;
13349;SDS011;6744;53.190;6.576;2023-08-07T08:45:26;8.53;;;3.10;;
13349;SDS011;6744;53.190;6.576;2023-08-07T08:47:54;8.57;;;2.97;;
13349;SDS011;6744;53.190;6.576;2023-08-07T08:50:20;10.80;;;3.60;;
13349;SDS011;6744;53.190;6.576;2023-08-07T08:52:45;10.03;;;3.23;;
13349;SDS011;6744;53.190;6.576;2023-08-07T08:55:11;10.43;;;2.90;;
13349;SDS011;6744;53.190;6.576;2023-08-07T08:57:37;5.40;;;2.40;;
13349;SDS011;6744;53.190;6.576;2023-08-07T09:00:04;7.23;;;2.50;;
13349;SDS011;6744;53.190;6.576;2023-08-07T09:02:50;7.03;;;2.40;;
13349;SDS011;6744;53.190;6.576;2023-08-07T09:05:17;7.40;;;2.50;;
13349;SDS011;6744;53.190;6.576;2023-08-07T09:07:45;8.30;;;2.43;;
13349;SDS011;6744;53.190;6.576;2023-08-07T09:10:12;7.87;;;2.30;;
13349;SDS011;6744;53.190;6.576;2023-08-07T09:12:39;7.97;;;2.67;;
13349;SDS011;6744;53.190;6.576;2023-08-07T09:15:07;7.53;;;2.90;;
13349;SDS011;6744;53.190;6.576;2023-08-07T09:17:36;5.60;;;2.47;;
13349;SDS011;6744;53.190;6.576;2023-08-07T09:20:05;7.43;;;2.60;;
13349;SDS011;6744;53.190;6.576;2023-08-07T09:22:31;7.93;;;2.23;;
13349;SDS011;6744;53.190;6.576;2023-08-07T09:24:57;7.17;;;2.60;;
13349;SDS011;6744;53.190;6.576;2023-08-07T09:27:25;4.93;;;2.50;;
13349;SDS011;6744;53.190;6.576;2023-08-07T09:29:50;6.13;;;2.27;;
13349;SDS011;6744;53.190;6.576;2023-08-07T09:32:16;7.57;;;2.27;;
13349;SDS011;6744;53.190;6.576;2023-08-07T09:34:43;6.93;;;2.40;;
13349;SDS011;6744;53.190;6.576;2023-08-07T09:37:09;7.00;;;2.53;;
13349;SDS011;6744;53.190;6.576;2023-08-07T09:39:35;8.03;;;2.30;;
13349;SDS011;6744;53.190;6.576;2023-08-07T09:42:01;7.13;;;2.50;;
13349;SDS011;6744;53.190;6.576;2023-08-07T09:44:36;8.10;;;2.40;;
13349;SDS011;6744;53.190;6.576;2023-08-07T09:47:11;7.67;;;2.27;;
13349;SDS011;6744;53.190;6.576;2023-08-07T09:49:38;8.33;;;2.70;;
13349;SDS011;6744;53.190;6.576;2023-08-07T09:52:05;6.57;;;2.60;;
13349;SDS011;6744;53.190;6.576;2023-08-07T09:54:32;7.57;;;2.33;;
13349;SDS011;6744;53.190;6.576;2023-08-07T09:56:58;7.27;;;2.70;;
13349;SDS011;6744;53.190;6.576;2023-08-07T09:59:26;10.87;;;2.57;;
13349;SDS011;6744;53.190;6.576;2023-08-07T10:01:52;7.80;;;2.40;;
13349;SDS011;6744;53.190;6.576;2023-08-07T10:04:18;6.67;;;2.20;;
13349;SDS011;6744;53.190;6.576;2023-08-07T10:06:44;6.30;;;2.20;;
13349;SDS011;6744;53.190;6.576;2023-08-07T10:09:10;6.73;;;2.43;;
13349;SDS011;6744;53.190;6.576;2023-08-07T10:11:37;8.03;;;2.20;;
13349;SDS011;6744;53.190;6.576;2023-08-07T10:14:04;5.27;;;2.63;;
13349;SDS011;6744;53.190;6.576;2023-08-07T10:16:30;7.07;;;2.60;;
13349;SDS011;6744;53.190;6.576;2023-08-07T10:18:55;5.50;;;2.27;;
13349;SDS011;6744;53.190;6.576;2023-08-07T10:21:21;8.83;;;2.80;;
13349;SDS011;6744;53.190;6.576;2023-08-07T10:23:47;6.30;;;2.37;;
13349;SDS011;6744;53.190;6.576;2023-08-07T10:26:14;8.63;;;2.67;;
13349;SDS011;6744;53.190;6.576;2023-08-07T10:28:40;9.97;;;2.80;;
13349;SDS011;6744;53.190;6.576;2023-08-07T10:31:06;8.40;;;2.87;;
13349;SDS011;6744;53.190;6.576;2023-08-07T10:33:32;7.13;;;2.50;;
13349;SDS011;6744;53.190;6.576;2023-08-07T10:35:57;6.97;;;2.70;;
13349;SDS011;6744;53.190;6.576;2023-08-07T10:38:24;10.77;;;3.00;;
13349;SDS011;6744;53.190;6.576;2023-08-07T10:41:00;7.43;;;2.60;;
13349;SDS011;6744;53.190;6.576;2023-08-07T10:43:39;6.37;;;2.27;;
13349;SDS011;6744;53.190;6.576;2023-08-07T10:46:06;8.90;;;2.57;;
13349;SDS011;6744;53.190;6.576;2023-08-07T10:48:41;8.50;;;2.40;;
13349;SDS011;6744;53.190;6.576;2023-08-07T10:51:08;9.60;;;2.83;;
13349;SDS011;6744;53.190;6.576;2023-08-07T10:53:39;5.57;;;2.27;;
13349;SDS011;6744;53.190;6.576;2023-08-07T10:56:08;6.30;;;2.43;;
13349;SDS011;6744;53.190;6.576;2023-08-07T10:58:34;5.97;;;1.77;;
13349;SDS011;6744;53.190;6.576;2023-08-07T11:03:45;6.10;;;1.80;;
13349;SDS011;6744;53.190;6.576;2023-08-07T11:06:18;3.97;;;1.80;;
13349;SDS011;6744;53.190;6.576;2023-08-07T11:08:47;5.70;;;1.80;;
13349;SDS011;6744;53.190;6.576;2023-08-07T11:11:13;3.67;;;2.00;;
13349;SDS011;6744;53.190;6.576;2023-08-07T11:13:39;6.17;;;1.97;;
13349;SDS011;6744;53.190;6.576;2023-08-07T11:16:05;5.90;;;2.20;;
13349;SDS011;6744;53.190;6.576;2023-08-07T11:18:30;5.53;;;2.23;;
13349;SDS011;6744;53.190;6.576;2023-08-07T11:20:56;5.00;;;1.80;;
13349;SDS011;6744;53.190;6.576;2023-08-07T11:23:23;6.17;;;2.07;;
13349;SDS011;6744;53.190;6.576;2023-08-07T11:25:52;8.80;;;2.30;;
13349;SDS011;6744;53.190;6.576;2023-08-07T11:28:21;7.63;;;2.23;;
13349;SDS011;6744;53.190;6.576;2023-08-07T11:30:48;4.53;;;2.13;;
13349;SDS011;6744;53.190;6.576;2023-08-07T11:33:14;7.27;;;2.60;;
13349;SDS011;6744;53.190;6.576;2023-08-07T11:35:43;6.10;;;2.13;;
13349;SDS011;6744;53.190;6.576;2023-08-07T11:38:08;6.37;;;2.03;;
13349;SDS011;6744;53.190;6.576;2023-08-07T11:40:34;7.40;;;2.10;;
13349;SDS011;6744;53.190;6.576;2023-08-07T11:43:00;4.97;;;2.07;;
13349;SDS011;6744;53.190;6.576;2023-08-07T11:45:25;5.47;;;1.90;;
13349;SDS011;6744;53.190;6.576;2023-08-07T11:47:50;5.73;;;2.20;;
13349;SDS011;6744;53.190;6.576;2023-08-07T11:50:16;5.13;;;2.00;;
13349;SDS011;6744;53.190;6.576;2023-08-07T11:52:41;3.83;;;1.67;;
13349;SDS011;6744;53.190;6.576;2023-08-07T11:55:07;5.40;;;1.60;;
13349;SDS011;6744;53.190;6.576;2023-08-07T11:57:34;3.60;;;1.37;;
13349;SDS011;6744;53.190;6.576;2023-08-07T12:00:05;3.97;;;1.83;;
13349;SDS011;6744;53.190;6.576;2023-08-07T12:02:35;6.03;;;1.97;;
13349;SDS011;6744;53.190;6.576;2023-08-07T12:05:00;7.50;;;2.07;;
13349;SDS011;6744;53.190;6.576;2023-08-07T12:07:26;7.67;;;2.00;;
13349;SDS011;6744;53.190;6.576;2023-08-07T12:09:52;4.87;;;1.80;;
13349;SDS011;6744;53.190;6.576;2023-08-07T12:12:19;3.17;;;2.03;;
13349;SDS011;6744;53.190;6.576;2023-08-07T12:14:45;5.33;;;1.80;;
13349;SDS011;6744;53.190;6.576;2023-08-07T12:17:10;3.10;;;1.70;;
13349;SDS011;6744;53.190;6.576;2023-08-07T12:19:36;4.70;;;2.17;;
13349;SDS011;6744;53.190;6.576;2023-08-07T12:22:03;5.30;;;2.10;;
13349;SDS011;6744;53.190;6.576;2023-08-07T12:24:30;5.53;;;2.30;;
13349;SDS011;6744;53.190;6.576;2023-08-07T12:26:56;5.57;;;2.03;;
13349;SDS011;6744;53.190;6.576;2023-08-07T12:29:21;5.27;;;2.20;;
13349;SDS011;6744;53.190;6.576;2023-08-07T12:31:48;4.37;;;1.67;;
13349;SDS011;6744;53.190;6.576;2023-08-07T12:34:14;4.40;;;2.30;;
13349;SDS011;6744;53.190;6.576;2023-08-07T12:36:41;4.10;;;1.80;;
13349;SDS011;6744;53.190;6.576;2023-08-07T12:39:06;6.60;;;2.43;;
13349;SDS011;6744;53.190;6.576;2023-08-07T12:41:32;4.50;;;2.20;;
13349;SDS011;6744;53.190;6.576;2023-08-07T12:43:57;5.00;;;2.23;;
13349;SDS011;6744;53.190;6.576;2023-08-07T12:46:24;5.53;;;2.27;;
13349;SDS011;6744;53.190;6.576;2023-08-07T12:48:49;5.53;;;1.87;;
13349;SDS011;6744;53.190;6.576;2023-08-07T12:51:15;5.13;;;2.00;;
13349;SDS011;6744;53.190;6.576;2023-08-07T12:53:41;5.37;;;2.07;;
13349;SDS011;6744;53.190;6.576;2023-08-07T12:56:06;5.57;;;2.07;;
13349;SDS011;6744;53.190;6.576;2023-08-07T12:58:32;6.37;;;1.83;;
13349;SDS011;6744;53.190;6.576;2023-08-07T13:00:57;4.63;;;1.90;;
13349;SDS011;6744;53.190;6.576;2023-08-07T13:03:22;6.70;;;2.53;;
13349;SDS011;6744;53.190;6.576;2023-08-07T13:05:48;5.03;;;1.90;;
13349;SDS011;6744;53.190;6.576;2023-08-07T13:08:13;7.33;;;2.40;;
13349;SDS011;6744;53.190;6.576;2023-08-07T13:10:39;6.67;;;2.23;;
13349;SDS011;6744;53.190;6.576;2023-08-07T13:13:04;6.20;;;2.03;;
13349;SDS011;6744;53.190;6.576;2023-08-07T13:15:30;6.83;;;2.20;;
13349;SDS011;6744;53.190;6.576;2023-08-07T13:17:56;6.30;;;2.63;;
13349;SDS011;6744;53.190;6.576;2023-08-07T13:20:21;4.40;;;2.43;;
13349;SDS011;6744;53.190;6.576;2023-08-07T13:22:46;6.93;;;2.47;;
13349;SDS011;6744;53.190;6.576;2023-08-07T13:25:12;6.07;;;2.50;;
13349;SDS011;6744;53.190;6.576;2023-08-07T13:27:38;5.60;;;2.27;;
13349;SDS011;6744;53.190;6.576;2023-08-07T13:30:05;5.80;;;2.20;;
13349;SDS011;6744;53.190;6.576;2023-08-07T13:32:31;5.60;;;2.30;;
13349;SDS011;6744;53.190;6.576;2023-08-07T13:34:59;6.80;;;2.73;;
13349;SDS011;6744;53.190;6.576;2023-08-07T13:37:24;5.27;;;2.50;;
13349;SDS011;6744;53.190;6.576;2023-08-07T13:39:50;5.73;;;2.70;;
13349;SDS011;6744;53.190;6.576;2023-08-07T13:42:17;6.37;;;2.53;;
13349;SDS011;6744;53.190;6.576;2023-08-07T13:44:43;5.37;;;2.47;;
13349;SDS011;6744;53.190;6.576;2023-08-07T13:47:09;6.77;;;2.63;;
13349;SDS011;6744;53.190;6.576;2023-08-07T13:49:35;6.67;;;2.47;;
13349;SDS011;6744;53.190;6.576;2023-08-07T13:52:00;9.73;;;2.70;;
13349;SDS011;6744;53.190;6.576;2023-08-07T13:54:26;6.73;;;2.60;;
13349;SDS011;6744;53.190;6.576;2023-08-07T13:56:51;6.27;;;2.53;;
13349;SDS011;6744;53.190;6.576;2023-08-07T13:59:17;8.60;;;2.60;;
13349;SDS011;6744;53.190;6.576;2023-08-07T14:01:42;6.57;;;2.70;;
13349;SDS011;6744;53.190;6.576;2023-08-07T14:04:08;13.13;;;2.80;;
13349;SDS011;6744;53.190;6.576;2023-08-07T14:06:33;8.40;;;2.80;;
13349;SDS011;6744;53.190;6.576;2023-08-07T14:08:58;6.70;;;2.33;;
13349;SDS011;6744;53.190;6.576;2023-08-07T14:11:24;7.47;;;2.63;;
13349;SDS011;6744;53.190;6.576;2023-08-07T14:13:55;8.60;;;2.87;;
13349;SDS011;6744;53.190;6.576;2023-08-07T14:16:20;6.03;;;2.07;;
13349;SDS011;6744;53.190;6.576;2023-08-07T14:18:47;6.83;;;2.67;;
13349;SDS011;6744;53.190;6.576;2023-08-07T14:21:12;5.70;;;2.43;;
13349;SDS011;6744;53.190;6.576;2023-08-07T14:23:37;6.57;;;2.47;;
13349;SDS011;6744;53.190;6.576;2023-08-07T14:26:03;5.53;;;2.20;;
13349;SDS011;6744;53.190;6.576;2023-08-07T14:28:28;7.37;;;2.80;;
13349;SDS011;6744;53.190;6.576;2023-08-07T14:30:56;6.20;;;2.43;;
13349;SDS011;6744;53.190;6.576;2023-08-07T14:33:22;4.13;;;1.80;;
13349;SDS011;6744;53.190;6.576;2023-08-07T14:35:47;6.00;;;2.30;;
13349;SDS011;6744;53.190;6.576;2023-08-07T14:38:12;4.30;;;2.00;;
13349;SDS011;6744;53.190;6.576;2023-08-07T14:40:38;7.47;;;1.87;;
13349;SDS011;6744;53.190;6.576;2023-08-07T14:43:05;7.20;;;2.10;;
13349;SDS011;6744;53.190;6.576;2023-08-07T14:45:31;6.33;;;2.10;;
13349;SDS011;6744;53.190;6.576;2023-08-07T14:47:56;5.73;;;2.03;;
13349;SDS011;6744;53.190;6.576;2023-08-07T14:50:22;6.57;;;1.90;;
13349;SDS011;6744;53.190;6.576;2023-08-07T14:52:47;3.97;;;1.50;;
13349;SDS011;6744;53.190;6.576;2023-08-07T14:55:12;4.83;;;2.03;;
13349;SDS011;6744;53.190;6.576;2023-08-07T14:57:38;5.93;;;2.17;;